Patriarch — WBN3014 — position and weather

sailwx.info

Track history (hours):
 
Tides and Currents Weather Stations Pressure Air Temp Water Temp Dewpoint Dewpoint Depression Visibility Wind Speed Wind Dir Waves Ship Positions

Patriarch

Owner: CROWLEY PUERTO RICO SERVICES INC, Seattle, WA. More information available from US FCC via Universal Licensing System and Coast Guard Vessel Documentation Center.

Last reported at 2015-Aug-31 18:00 UTC. Time now 2015-Sep-02 17:01 UTC.
Position N 21°24' W 067°30'.

Length 46 m; draft 5 m.

Type: Towing. MMSI: 366766940.

Wind from 120 at 12 knots

Waves 0.5 meters (2 feet), 6 second period

Barometer 1014.0 mb
Air temperature 34.4 ° C
Visibility: greater than 5.4 NM

Date/timePositionNaut miles runAvg speedWind from/ knotsBaromVisibWave heightAir tempDewpointWater temp
2015-Aug-31 18:00N 21°24' W 067°30'111 2.4 120 / 121014.0 5.4 0.534.4
2015-Aug-29 19:00N 20°06' W 066°06'210 8.8 090 / 171013.0 5.4 0.533.3
2015-Aug-28 19:00N 23°36' W 066°06'207 8.6 090 / 151014.0 5.4 1.033.3
2015-Aug-27 19:00N 26°54' W 067°12'237 9.5 140 / 151014.0 5.4 0.533.3
2015-Aug-26 18:00N 30°18' W 069°30'   200 / 151014.0 5.4 0.532.2
2015-Aug-24 04:17N 38°34' W 074°50'7 9.7
2015-Aug-24 03:34N 38°39' W 074°55'1110.5
2015-Aug-24 02:34N 38°48' W 075°03'1110.3
2015-Aug-24 01:28N 38°59' W 075°08'910.4
2015-Aug-24 00:33N 39°07' W 075°13'1010.1
2015-Aug-23 23:34N 39°16' W 075°20'9 9.1
2015-Aug-23 22:34N 39°22' W 075°28'7 7.4
2015-Aug-23 21:34N 39°28' W 075°34'7 7.0
2015-Aug-23 20:34N 39°35' W 075°34'6 6.4
2015-Aug-23 19:34N 39°41' W 075°31'8 8.2
2015-Aug-23 18:34N 39°48' W 075°25'10 9.9
2015-Aug-23 17:34N 39°52' W 075°14'8 8.4
2015-Aug-23 16:34N 39°58' W 075°07'0 0.2
2015-Aug-23 15:33N 39°58' W 075°07'0 0.0
2015-Aug-23 14:34N 39°58' W 075°07'1 1.1
2015-Aug-23 13:32N 39°59' W 075°05'0 0.0
2015-Aug-23 12:32N 39°59' W 075°05'0 0.0
2015-Aug-23 11:32N 39°59' W 075°05'0 0.0
2015-Aug-23 10:32N 39°59' W 075°05'0 0.0
2015-Aug-23 09:29N 39°59' W 075°05'0 0.0
2015-Aug-23 08:32N 39°59' W 075°05'0 0.0
2015-Aug-23 07:32N 39°59' W 075°05'0 0.0
2015-Aug-23 06:32N 39°59' W 075°05'0 0.0
2015-Aug-23 05:32N 39°59' W 075°05'0 0.0
2015-Aug-23 04:29N 39°59' W 075°05'0 0.0
2015-Aug-23 03:32N 39°59' W 075°05'0 0.0
2015-Aug-23 02:33N 39°59' W 075°05'0 0.0
2015-Aug-23 01:33N 39°59' W 075°05'0 0.0
2015-Aug-23 00:33N 39°59' W 075°05'0 0.0
2015-Aug-22 23:33N 39°59' W 075°05'0 0.0
2015-Aug-22 22:33N 39°59' W 075°05'0 0.0
2015-Aug-22 21:33N 39°59' W 075°05'0 0.0
2015-Aug-22 20:33N 39°59' W 075°05'0 0.0
2015-Aug-22 19:33N 39°59' W 075°05'0 0.0
2015-Aug-22 18:33N 39°59' W 075°05'1 1.1
2015-Aug-22 17:33N 39°58' W 075°07'0 0.1
2015-Aug-22 16:33N 39°58' W 075°07'3 3.5
2015-Aug-22 15:34N 39°55' W 075°08'7 6.8
2015-Aug-22 14:34N 39°51' W 075°15'7 7.1
2015-Aug-22 13:33N 39°49' W 075°24'7 7.4
2015-Aug-22 12:33N 39°43' W 075°30'7 7.5
2015-Aug-22 11:34N 39°36' W 075°34'8 7.8
2015-Aug-22 10:34N 39°29' W 075°34'8 8.3
2015-Aug-22 09:34N 39°22' W 075°27'9 9.4
2015-Aug-22 08:33N 39°15' W 075°19'9 9.2
2015-Aug-22 07:33N 39°07' W 075°13'9 9.5
2015-Aug-22 06:33N 38°59' W 075°08'1010.0
2015-Aug-22 05:34N 38°49' W 075°03'  
Track history (hours):
 
Tides and Currents Weather Stations Pressure Air Temp Water Temp Dewpoint Dewpoint Depression Visibility Wind Speed Wind Dir Waves Ship Positions

Patriarch

Owner: CROWLEY PUERTO RICO SERVICES INC, Seattle, WA. More information available from US FCC via Universal Licensing System and Coast Guard Vessel Documentation Center.

Last reported at 2015-Aug-31 18:00 UTC. Time now 2015-Sep-02 17:01 UTC.
Position N 21°24' W 067°30'.

Length 46 m; draft 5 m.

Type: Towing. MMSI: 366766940.

Wind from 120 at 12 knots

Waves 0.5 meters (2 feet), 6 second period

Barometer 1014.0 mb
Air temperature 34.4 ° C
Visibility: greater than 5.4 NM

Date/timePositionNaut miles runAvg speedWind from/ knotsBaromVisibWave heightAir tempDewpointWater temp
2015-Aug-31 18:00N 21°24' W 067°30'111 2.4 120 / 121014.0 5.4 0.534.4
2015-Aug-29 19:00N 20°06' W 066°06'210 8.8 090 / 171013.0 5.4 0.533.3
2015-Aug-28 19:00N 23°36' W 066°06'207 8.6 090 / 151014.0 5.4 1.033.3
2015-Aug-27 19:00N 26°54' W 067°12'237 9.5 140 / 151014.0 5.4 0.533.3
2015-Aug-26 18:00N 30°18' W 069°30'   200 / 151014.0 5.4 0.532.2
2015-Aug-24 04:17N 38°34' W 074°50'7 9.7
2015-Aug-24 03:34N 38°39' W 074°55'1110.5
2015-Aug-24 02:34N 38°48' W 075°03'1110.3
2015-Aug-24 01:28N 38°59' W 075°08'910.4
2015-Aug-24 00:33N 39°07' W 075°13'1010.1
2015-Aug-23 23:34N 39°16' W 075°20'9 9.1
2015-Aug-23 22:34N 39°22' W 075°28'7 7.4
2015-Aug-23 21:34N 39°28' W 075°34'7 7.0
2015-Aug-23 20:34N 39°35' W 075°34'6 6.4
2015-Aug-23 19:34N 39°41' W 075°31'8 8.2
2015-Aug-23 18:34N 39°48' W 075°25'10 9.9
2015-Aug-23 17:34N 39°52' W 075°14'8 8.4
2015-Aug-23 16:34N 39°58' W 075°07'0 0.2
2015-Aug-23 15:33N 39°58' W 075°07'0 0.0
2015-Aug-23 14:34N 39°58' W 075°07'1 1.1
2015-Aug-23 13:32N 39°59' W 075°05'0 0.0
2015-Aug-23 12:32N 39°59' W 075°05'0 0.0
2015-Aug-23 11:32N 39°59' W 075°05'0 0.0
2015-Aug-23 10:32N 39°59' W 075°05'0 0.0
2015-Aug-23 09:29N 39°59' W 075°05'0 0.0
2015-Aug-23 08:32N 39°59' W 075°05'0 0.0
2015-Aug-23 07:32N 39°59' W 075°05'0 0.0
2015-Aug-23 06:32N 39°59' W 075°05'0 0.0
2015-Aug-23 05:32N 39°59' W 075°05'0 0.0
2015-Aug-23 04:29N 39°59' W 075°05'0 0.0
2015-Aug-23 03:32N 39°59' W 075°05'0 0.0
2015-Aug-23 02:33N 39°59' W 075°05'0 0.0
2015-Aug-23 01:33N 39°59' W 075°05'0 0.0
2015-Aug-23 00:33N 39°59' W 075°05'0 0.0
2015-Aug-22 23:33N 39°59' W 075°05'0 0.0
2015-Aug-22 22:33N 39°59' W 075°05'0 0.0
2015-Aug-22 21:33N 39°59' W 075°05'0 0.0
2015-Aug-22 20:33N 39°59' W 075°05'0 0.0
2015-Aug-22 19:33N 39°59' W 075°05'0 0.0
2015-Aug-22 18:33N 39°59' W 075°05'1 1.1
2015-Aug-22 17:33N 39°58' W 075°07'0 0.1
2015-Aug-22 16:33N 39°58' W 075°07'3 3.5
2015-Aug-22 15:34N 39°55' W 075°08'7 6.8
2015-Aug-22 14:34N 39°51' W 075°15'7 7.1
2015-Aug-22 13:33N 39°49' W 075°24'7 7.4
2015-Aug-22 12:33N 39°43' W 075°30'7 7.5
2015-Aug-22 11:34N 39°36' W 075°34'8 7.8
2015-Aug-22 10:34N 39°29' W 075°34'8 8.3
2015-Aug-22 09:34N 39°22' W 075°27'9 9.4
2015-Aug-22 08:33N 39°15' W 075°19'9 9.2
2015-Aug-22 07:33N 39°07' W 075°13'9 9.5
2015-Aug-22 06:33N 38°59' W 075°08'1010.0
2015-Aug-22 05:34N 38°49' W 075°03'  

Dump ship's entire track history